»·PEaware :: AAL183 KLAX-ZSPD

AAL183 :: KLAX-ZSPD

FLIGHT INFORMATION

Flight Status: Arrived
Operator:
American Airlines
More flights by this operator :: More flights under this callsign
Pilot: Steven R. (3445)
Aircraft: BOEING 777-200
(B772)
More flights by this aircraft type
Origin: KLAX Los Angeles Intl
United States
Destination: ZSPD Pudong
China
More flights between these airports :: More routes between these airports
Route: +VTU5 RZS LIBBO BRINY BOARS AMAKR LINUZ NATTE ZANNG 50N140W 53N150W 55N160W CAMBO DRAPP OPAKE R580 OATIS OTR3 GOC Y88 CUE Y28 CLIPA V28 ACTIE Y28 DGC V28 FUE A593 POTET Y60 ONIKU A593 SADLI A593 DUMET
File this flight plan on PilotEdge
Remarks:
Altitude:
(Current/Filed)
36,000ft
Speed:
(Current/Filed)
460kts
Departed: 18-Apr-14 03:02 PM
Arrived: 19-Apr-14 04:33 AM
Distance/Time
Traveled:
5620nm/13:30
Distance/Time
To Go:
Arrived

Flight Plot

Page will automatically refresh every two minutes.


Map Options




Map Legend


Flown Route
Filed Route
Departure Airport
Arrival Airport
Navaid (VOR, NDB)
Fix

Horizontal Profiles

Position Reports

Time Latitude Longitude Heading Altitude Ground
Speed
18-Apr-14 13:59 33.939706 -118.406467 343 139ft 0kts
18-Apr-14 14:00 33.939706 -118.406467 343 139ft 0kts
18-Apr-14 14:01 33.939706 -118.406467 343 139ft 0kts
18-Apr-14 14:02 33.939706 -118.406467 343 139ft 0kts
18-Apr-14 14:03 33.939706 -118.406467 343 139ft 0kts
18-Apr-14 14:04 33.939706 -118.406467 343 139ft 0kts
18-Apr-14 14:05 33.939706 -118.406467 343 139ft 0kts
18-Apr-14 14:06 33.939706 -118.406467 343 139ft 0kts
18-Apr-14 14:07 33.939706 -118.406467 343 139ft 0kts
18-Apr-14 14:08 33.939706 -118.406467 343 139ft 0kts
18-Apr-14 14:09 33.939706 -118.406467 343 139ft 0kts
18-Apr-14 14:10 33.939706 -118.406467 343 139ft 0kts
18-Apr-14 14:11 33.939706 -118.406467 343 139ft 0kts
18-Apr-14 14:12 33.939706 -118.406467 343 139ft 0kts
18-Apr-14 14:13 33.939706 -118.406467 343 139ft 0kts
18-Apr-14 14:14 33.939706 -118.406467 343 139ft 0kts
18-Apr-14 14:15 33.939706 -118.406467 343 139ft 0kts
18-Apr-14 14:16 33.939706 -118.406467 343 139ft 0kts
18-Apr-14 14:17 33.939706 -118.406467 343 139ft 0kts
18-Apr-14 14:18 33.939706 -118.406467 343 139ft 0kts
18-Apr-14 14:19 33.939706 -118.406467 343 139ft 0kts
18-Apr-14 14:20 33.939706 -118.406467 343 139ft 0kts
18-Apr-14 14:21 33.939706 -118.406467 343 139ft 0kts
18-Apr-14 14:22 33.939706 -118.406467 343 139ft 0kts
18-Apr-14 14:23 33.939706 -118.406467 343 139ft 0kts
18-Apr-14 14:24 33.939706 -118.406467 343 139ft 0kts
18-Apr-14 14:25 33.939706 -118.406467 343 139ft 0kts
18-Apr-14 14:26 33.939706 -118.406467 343 139ft 0kts
18-Apr-14 14:27 33.939706 -118.406467 343 139ft 0kts
18-Apr-14 14:28 33.939706 -118.406467 343 139ft 0kts
18-Apr-14 14:29 33.939706 -118.406467 343 139ft 0kts
18-Apr-14 14:30 33.939706 -118.406467 343 139ft 0kts
18-Apr-14 14:31 33.939706 -118.406467 343 139ft 0kts
18-Apr-14 14:32 33.939706 -118.406467 343 139ft 0kts
18-Apr-14 14:33 33.939706 -118.406467 343 139ft 0kts
18-Apr-14 14:34 33.939706 -118.406467 343 139ft 0kts
18-Apr-14 14:35 33.939706 -118.406467 343 139ft 0kts
18-Apr-14 14:36 33.939706 -118.406467 343 139ft 0kts
18-Apr-14 14:37 33.939706 -118.406467 343 139ft 0kts
18-Apr-14 14:38 33.939706 -118.406467 343 139ft 0kts
18-Apr-14 14:39 33.939706 -118.406467 343 139ft 0kts
18-Apr-14 14:40 33.939706 -118.406467 343 139ft 0kts
18-Apr-14 14:41 33.939706 -118.406467 343 139ft 0kts
18-Apr-14 14:42 33.939706 -118.406467 343 139ft 0kts
18-Apr-14 14:43 33.939706 -118.406467 343 139ft 0kts
18-Apr-14 14:44 33.939706 -118.406467 343 139ft 0kts
18-Apr-14 14:45 33.939706 -118.406467 343 139ft 0kts
18-Apr-14 14:46 33.939706 -118.406467 343 139ft 0kts
18-Apr-14 14:47 33.939706 -118.406467 343 139ft 0kts
18-Apr-14 14:48 33.939706 -118.406467 343 139ft 0kts
18-Apr-14 14:49 33.939692 -118.406463 343 139ft 1kts
18-Apr-14 14:50 33.939020 -118.406629 53 139ft 2kts
18-Apr-14 14:51 33.938926 -118.406857 72 139ft 0kts
18-Apr-14 14:52 33.938926 -118.406855 72 139ft 0kts
18-Apr-14 14:53 33.938994 -118.406331 84 139ft 7kts
18-Apr-14 14:54 33.939217 -118.403987 82 139ft 8kts
18-Apr-14 14:55 33.939527 -118.400922 82 139ft 12kts
18-Apr-14 14:56 33.939842 -118.397880 82 139ft 7kts
18-Apr-14 14:57 33.940264 -118.393685 82 139ft 16kts
18-Apr-14 14:58 33.940731 -118.389120 82 139ft 15kts
18-Apr-14 14:59 33.941146 -118.385080 82 139ft 10kts
18-Apr-14 15:00 33.940599 -118.382594 81 139ft 5kts
18-Apr-14 15:01 33.940442 -118.380369 137 139ft 7kts
18-Apr-14 15:02 33.939291 -118.386260 262 139ft 90kts
18-Apr-14 15:03 33.939902 -118.389291 76 139ft 17kts
18-Apr-14 15:04 33.940330 -118.385185 83 139ft 6kts
18-Apr-14 15:05 33.940710 -118.381437 83 139ft 6kts
18-Apr-14 15:06 33.939242 -118.386809 262 139ft 106kts
18-Apr-14 15:07 33.932820 -118.449027 262 2587ft 221kts
18-Apr-14 15:08 33.925782 -118.517068 262 4751ft 261kts
18-Apr-14 15:09 33.916437 -118.607324 263 8074ft 278kts
18-Apr-14 15:10 33.909204 -118.703358 281 10767ft 305kts
18-Apr-14 15:11 33.959218 -118.797924 307 12327ft 369kts
18-Apr-14 15:12 34.023390 -118.901391 306 14859ft 397kts
18-Apr-14 15:13 34.089913 -119.008840 307 17873ft 404kts
18-Apr-14 15:14 34.156584 -119.122823 304 20237ft 425kts
18-Apr-14 15:15 34.222099 -119.244126 305 22810ft 432kts
18-Apr-14 15:16 34.289661 -119.367859 305 24916ft 448kts
18-Apr-14 15:17 34.360059 -119.495442 306 27138ft 454kts
18-Apr-14 15:18 34.429271 -119.622700 307 29392ft 458kts
18-Apr-14 15:19 34.499580 -119.752193 309 31298ft 458kts
18-Apr-14 15:20 34.580131 -119.866790 316 33861ft 432kts
18-Apr-14 15:21 34.660691 -119.975219 315 33991ft 433kts
18-Apr-14 15:22 34.731105 -120.070777 315 33987ft 434kts
18-Apr-14 15:23 34.811978 -120.179771 315 33991ft 433kts
18-Apr-14 15:24 34.892576 -120.289275 315 34009ft 433kts
18-Apr-14 15:25 34.972946 -120.398987 315 34009ft 433kts
18-Apr-14 15:26 35.053265 -120.509003 315 34009ft 433kts
18-Apr-14 15:27 35.133484 -120.619212 314 33998ft 432kts
18-Apr-14 15:28 35.213549 -120.729627 313 33998ft 433kts
18-Apr-14 15:29 35.293676 -120.840422 313 33981ft 434kts
18-Apr-14 15:30 35.373946 -120.951808 313 33979ft 436kts
18-Apr-14 15:31 35.454195 -121.063524 313 33975ft 436kts
18-Apr-14 15:32 35.534236 -121.175336 313 33991ft 434kts
18-Apr-14 15:33 35.614276 -121.287514 313 33989ft 435kts
18-Apr-14 15:34 35.694235 -121.399907 312 33985ft 436kts
18-Apr-14 15:35 35.773950 -121.512343 312 33975ft 434kts
18-Apr-14 15:36 35.853772 -121.624852 312 33988ft 435kts
18-Apr-14 15:37 35.933361 -121.738203 312 34008ft 435kts
18-Apr-14 15:38 36.018210 -121.843907 326 34012ft 434kts
18-Apr-14 15:39 36.125829 -121.913321 332 34009ft 435kts
18-Apr-14 15:40 36.234588 -121.980354 332 34009ft 438kts
18-Apr-14 15:41 36.343119 -122.048304 332 34018ft 435kts
18-Apr-14 15:42 36.451703 -122.116511 331 34012ft 436kts
18-Apr-14 15:43 36.560055 -122.184941 331 34019ft 436kts
18-Apr-14 15:44 36.668586 -122.253755 331 34020ft 437kts
18-Apr-14 15:45 36.777218 -122.322860 331 34029ft 437kts
18-Apr-14 15:46 36.885835 -122.392188 331 34029ft 437kts
18-Apr-14 15:47 36.994392 -122.461680 331 34011ft 438kts
18-Apr-14 15:48 37.103195 -122.531351 331 34020ft 438kts
18-Apr-14 15:49 37.211564 -122.601339 331 34016ft 437kts
18-Apr-14 15:50 37.319862 -122.670546 333 34009ft 438kts
18-Apr-14 15:51 37.433726 -122.726887 336 33998ft 439kts
18-Apr-14 15:52 37.548058 -122.783473 336 34012ft 442kts
18-Apr-14 15:53 37.662082 -122.840605 336 34018ft 440kts
18-Apr-14 15:54 37.758910 -122.889216 335 33999ft 440kts
18-Apr-14 15:55 37.872316 -122.946495 336 33999ft 439kts
18-Apr-14 15:56 37.985931 -123.003899 336 33989ft 438kts
18-Apr-14 15:57 38.099735 -123.061877 335 33982ft 438kts
18-Apr-14 15:58 38.212673 -123.119747 334 33949ft 437kts
18-Apr-14 15:59 38.317483 -123.197893 325 33949ft 436kts
18-Apr-14 16:00 38.420148 -123.281278 326 33969ft 435kts
18-Apr-14 16:01 38.522753 -123.363864 326 33965ft 435kts
18-Apr-14 16:02 38.625579 -123.446180 326 33950ft 435kts
18-Apr-14 16:03 38.727870 -123.528766 326 33956ft 433kts
18-Apr-14 16:04 38.830076 -123.611339 326 33959ft 433kts
18-Apr-14 16:05 38.932055 -123.694495 326 33959ft 433kts
18-Apr-14 16:06 39.032748 -123.780048 322 33960ft 432kts
18-Apr-14 16:07 39.127806 -123.875681 321 33960ft 432kts
18-Apr-14 16:08 39.222560 -123.970348 321 33978ft 431kts
18-Apr-14 16:09 39.317931 -124.064964 321 33979ft 431kts
18-Apr-14 16:10 39.413078 -124.159473 321 34016ft 430kts
18-Apr-14 16:11 39.508189 -124.254590 321 34020ft 429kts
18-Apr-14 16:12 39.602712 -124.349495 321 34027ft 429kts
18-Apr-14 16:13 39.696808 -124.444312 321 34046ft 428kts
18-Apr-14 16:14 39.791214 -124.539791 320 34049ft 428kts
18-Apr-14 16:15 39.885396 -124.635372 320 34060ft 430kts
18-Apr-14 16:16 39.979750 -124.731491 320 34067ft 429kts
18-Apr-14 16:17 40.073625 -124.827462 320 34074ft 428kts
18-Apr-14 16:18 40.167216 -124.923491 320 34070ft 425kts
18-Apr-14 16:19 40.260816 -125.019835 320 34069ft 428kts
18-Apr-14 16:20 40.354653 -125.116822 319 34069ft 429kts
18-Apr-14 16:21 40.448468 -125.214129 319 34070ft 429kts
18-Apr-14 16:22 40.542235 -125.311741 319 34069ft 429kts
18-Apr-14 16:23 40.635549 -125.409237 319 34079ft 426kts
18-Apr-14 16:24 40.728509 -125.506722 319 34079ft 426kts
18-Apr-14 16:25 40.821405 -125.604518 319 34089ft 426kts
18-Apr-14 16:26 40.914101 -125.702426 319 34091ft 425kts
18-Apr-14 16:27 41.006803 -125.800744 318 34081ft 426kts
18-Apr-14 16:28 41.099479 -125.899367 318 34078ft 426kts
18-Apr-14 16:29 41.192659 -125.998894 318 34088ft 428kts
18-Apr-14 16:30 41.285145 -126.098078 317 34087ft 427kts
18-Apr-14 16:31 41.377785 -126.197801 317 34092ft 428kts
18-Apr-14 16:32 41.471043 -126.298082 317 34088ft 427kts
18-Apr-14 16:33 41.563266 -126.398376 317 34091ft 428kts
18-Apr-14 16:34 41.655980 -126.499668 316 34083ft 427kts
18-Apr-14 16:35 41.740094 -126.611700 311 34080ft 425kts
18-Apr-14 16:36 41.822975 -126.725175 311 34079ft 424kts
18-Apr-14 16:37 41.905901 -126.838164 311 34081ft 423kts
18-Apr-14 16:38 41.988830 -126.951404 311 34082ft 425kts
18-Apr-14 16:39 42.071358 -127.064805 311 34079ft 424kts
18-Apr-14 16:40 42.154007 -127.178420 311 34073ft 421kts
18-Apr-14 16:41 42.222930 -127.272551 311 34072ft 422kts
18-Apr-14 16:42 42.305201 -127.386159 311 34071ft 422kts
18-Apr-14 16:43 42.387266 -127.500068 311 34072ft 422kts
18-Apr-14 16:44 42.469050 -127.614001 311 34070ft 421kts
18-Apr-14 16:45 42.550611 -127.728173 311 34067ft 422kts
18-Apr-14 16:46 42.632136 -127.842702 311 34069ft 420kts
18-Apr-14 16:47 42.713514 -127.957503 311 34071ft 421kts
18-Apr-14 16:48 42.795042 -128.073005 310 34073ft 421kts
18-Apr-14 16:49 42.876483 -128.188803 310 34046ft 422kts
18-Apr-14 16:50 42.957827 -128.304967 310 34015ft 420kts
18-Apr-14 16:51 43.039065 -128.421437 309 34009ft 426kts
18-Apr-14 16:52 43.120856 -128.539225 309 34010ft 424kts
18-Apr-14 16:53 43.202299 -128.656990 309 34008ft 426kts
18-Apr-14 16:54 43.283680 -128.775099 309 34009ft 425kts
18-Apr-14 16:55 43.364920 -128.893568 309 34009ft 425kts
18-Apr-14 16:56 43.446277 -129.012652 309 34022ft 424kts
18-Apr-14 16:57 43.527099 -129.131487 309 34021ft 424kts
18-Apr-14 16:58 43.607733 -129.250555 309 34017ft 423kts
18-Apr-14 16:59 43.688370 -129.370097 309 34018ft 424kts
18-Apr-14 17:00 43.768800 -129.489855 308 34021ft 423kts
18-Apr-14 17:01 43.849257 -129.610136 308 34020ft 425kts
18-Apr-14 17:02 43.929883 -129.730533 308 34019ft 424kts
18-Apr-14 17:03 44.009761 -129.851400 308 34023ft 424kts
18-Apr-14 17:04 44.089569 -129.972525 308 34019ft 424kts
18-Apr-14 17:05 44.172038 -130.091015 310 34019ft 425kts
18-Apr-14 17:06 44.254718 -130.209252 309 34010ft 425kts
18-Apr-14 17:07 44.337043 -130.327907 310 34008ft 424kts
18-Apr-14 17:08 44.419654 -130.445683 310 34009ft 422kts
18-Apr-14 17:09 44.501771 -130.564155 309 34011ft 423kts
18-Apr-14 17:10 44.583834 -130.683301 309 34016ft 424kts
18-Apr-14 17:11 44.665684 -130.802768 309 34031ft 422kts
18-Apr-14 17:12 44.747303 -130.922371 309 34037ft 425kts
18-Apr-14 17:13 44.828604 -131.042060 309 34028ft 422kts
18-Apr-14 17:14 44.910068 -131.162481 309 34030ft 424kts
18-Apr-14 17:15 44.991385 -131.283227 309 34034ft 425kts
18-Apr-14 17:16 45.072938 -131.404846 309 34036ft 424kts
18-Apr-14 17:17 45.154245 -131.526689 309 34029ft 425kts
18-Apr-14 17:18 45.235722 -131.649300 308 34031ft 431kts
18-Apr-14 17:19 45.318954 -131.775146 307 34036ft 436kts
18-Apr-14 17:20 45.401849 -131.901001 307 34039ft 434kts
18-Apr-14 17:21 45.484498 -132.027111 307 34050ft 434kts
18-Apr-14 17:22 45.567057 -132.153617 307 34023ft 436kts
18-Apr-14 17:23 45.649869 -132.281168 307 34052ft 435kts
18-Apr-14 17:24 45.732376 -132.408819 307 34048ft 437kts
18-Apr-14 17:25 45.814873 -132.537037 307 34052ft 437kts
18-Apr-14 17:26 45.897052 -132.665419 307 34049ft 436kts
18-Apr-14 17:27 45.979123 -132.794169 307 34049ft 435kts
18-Apr-14 17:28 46.060826 -132.922983 307 34023ft 431kts
18-Apr-14 17:29 46.128955 -133.030850 307 34022ft 431kts
18-Apr-14 17:30 46.209870 -133.159548 307 34053ft 433kts
18-Apr-14 17:31 46.290622 -133.288536 307 34050ft 430kts
18-Apr-14 17:32 46.371038 -133.417652 307 34056ft 431kts
18-Apr-14 17:33 46.451325 -133.547153 307 34051ft 432kts
18-Apr-14 17:34 46.531542 -133.677100 306 34030ft 431kts
18-Apr-14 17:35 46.611299 -133.807014 306 34024ft 432kts
18-Apr-14 17:36 46.691281 -133.937936 306 34024ft 430kts
18-Apr-14 17:37 46.771062 -134.069082 306 34024ft 437kts
18-Apr-14 17:38 46.853052 -134.204540 306 34022ft 451kts
18-Apr-14 17:39 46.936388 -134.342984 306 34023ft 451kts
18-Apr-14 17:40 47.019012 -134.480883 306 34028ft 450kts
18-Apr-14 17:41 47.101814 -134.619829 306 34025ft 450kts
18-Apr-14 17:42 47.184616 -134.759511 305 34028ft 452kts
18-Apr-14 17:43 47.266839 -134.898864 305 34024ft 452kts
18-Apr-14 17:44 47.349360 -135.039463 305 34024ft 452kts
18-Apr-14 17:45 47.431888 -135.180822 305 34023ft 451kts
18-Apr-14 17:46 47.513634 -135.321632 305 34022ft 452kts
18-Apr-14 17:47 47.596186 -135.464538 305 34024ft 461kts
18-Apr-14 17:48 47.679578 -135.609626 305 33968ft 459kts
18-Apr-14 17:49 47.762353 -135.754455 304 33963ft 460kts
18-Apr-14 17:50 47.845052 -135.899942 304 33962ft 460kts
18-Apr-14 17:51 47.927344 -136.045508 304 33963ft 457kts
18-Apr-14 17:52 48.009583 -136.191783 304 33965ft 459kts
18-Apr-14 17:53 48.091824 -136.338815 304 33966ft 459kts
18-Apr-14 17:54 48.173627 -136.485842 304 33964ft 460kts
18-Apr-14 17:55 48.255493 -136.633866 304 33962ft 459kts
18-Apr-14 17:56 48.336889 -136.781806 304 33964ft 458kts
18-Apr-14 17:57 48.418198 -136.930436 304 33963ft 459kts
18-Apr-14 17:58 48.499227 -137.079370 304 33965ft 459kts
18-Apr-14 17:59 48.579855 -137.228361 304 33967ft 458kts
18-Apr-14 18:00 48.660498 -137.378288 303 33963ft 457kts
18-Apr-14 18:01 48.740935 -137.528619 303 33963ft 459kts
18-Apr-14 18:02 48.821046 -137.679178 303 33963ft 458kts
18-Apr-14 18:03 48.900950 -137.830263 303 33965ft 455kts
18-Apr-14 18:04 48.980577 -137.981637 303 33966ft 458kts
18-Apr-14 18:05 49.060216 -138.133910 303 33964ft 457kts
18-Apr-14 18:06 49.139635 -138.286633 303 33964ft 457kts
18-Apr-14 18:07 49.218975 -138.440090 303 33965ft 461kts
18-Apr-14 18:08 49.298227 -138.594319 303 33964ft 460kts
18-Apr-14 18:09 49.377268 -138.748916 302 33964ft 460kts
18-Apr-14 18:10 49.456092 -138.904040 302 33964ft 459kts
18-Apr-14 18:11 49.534705 -139.059671 302 33962ft 459kts
18-Apr-14 18:12 49.613055 -139.215676 302 33967ft 459kts
18-Apr-14 18:13 49.691222 -139.372230 302 33964ft 458kts
18-Apr-14 18:14 49.769036 -139.529073 302 33963ft 460kts
18-Apr-14 18:15 49.847246 -139.686434 302 33962ft 461kts
18-Apr-14 18:16 49.924656 -139.844880 301 33932ft 459kts
18-Apr-14 18:17 50.001309 -140.003925 299 33936ft 458kts
18-Apr-14 18:18 50.054754 -140.145737 293 33937ft 454kts
18-Apr-14 18:19 50.115227 -140.318919 294 33933ft 456kts
18-Apr-14 18:20 50.187291 -140.521168 295 33933ft 458kts
18-Apr-14 18:21 50.239564 -140.665607 295 33937ft 457kts
18-Apr-14 18:22 50.301459 -140.839559 294 33935ft 456kts
18-Apr-14 18:23 50.362911 -141.014106 294 33933ft 457kts
18-Apr-14 18:24 50.423961 -141.188660 294 33930ft 457kts
18-Apr-14 18:25 50.485195 -141.365005 294 33932ft 459kts
18-Apr-14 18:26 50.546023 -141.541388 294 33936ft 458kts
18-Apr-14 18:27 50.606559 -141.718155 294 33934ft 458kts
18-Apr-14 18:28 50.666978 -141.895889 294 33933ft 460kts
18-Apr-14 18:29 50.727033 -142.073712 294 33908ft 457kts
18-Apr-14 18:30 50.786814 -142.251976 293 33900ft 458kts
18-Apr-14 18:31 50.846185 -142.430397 293 33906ft 458kts
18-Apr-14 18:32 50.905554 -142.609986 293 33907ft 457kts
18-Apr-14 18:33 50.964427 -142.789314 293 33903ft 459kts
18-Apr-14 18:34 51.023172 -142.969716 293 33904ft 459kts
18-Apr-14 18:35 51.081875 -143.151200 293 33902ft 465kts
18-Apr-14 18:36 51.140606 -143.334098 292 33904ft 462kts
18-Apr-14 18:37 51.199044 -143.517467 292 33879ft 462kts
18-Apr-14 18:38 51.257124 -143.701085 292 33875ft 464kts
18-Apr-14 18:39 51.314974 -143.885379 292 33877ft 462kts
18-Apr-14 18:40 51.372454 -144.069894 292 33879ft 462kts
18-Apr-14 18:41 51.429660 -144.254885 292 33879ft 462kts
18-Apr-14 18:42 51.486546 -144.440243 292 33879ft 462kts
18-Apr-14 18:43 51.543119 -144.626000 292 33879ft 462kts
18-Apr-14 18:44 51.599420 -144.812289 291 33879ft 462kts
18-Apr-14 18:45 51.655389 -144.998942 292 33880ft 462kts
18-Apr-14 18:46 51.711160 -145.186345 292 33879ft 463kts
18-Apr-14 18:47 51.766464 -145.373652 291 33879ft 463kts
18-Apr-14 18:48 51.821804 -145.562568 291 33879ft 463kts
18-Apr-14 18:49 51.876633 -145.751230 291 33879ft 462kts
18-Apr-14 18:50 51.931172 -145.940396 291 33785ft 462kts
18-Apr-14 18:51 51.985385 -146.129942 291 33779ft 462kts
18-Apr-14 18:52 52.039260 -146.319795 290 33779ft 467kts
18-Apr-14 18:53 52.094474 -146.516032 290 33749ft 478kts
18-Apr-14 18:54 52.149265 -146.712399 290 33750ft 477kts
18-Apr-14 18:55 52.203867 -146.909742 290 33749ft 477kts
18-Apr-14 18:56 52.258157 -147.107585 290 33723ft 477kts
18-Apr-14 18:57 52.312155 -147.306097 290 33717ft 477kts
18-Apr-14 18:58 52.365886 -147.505372 290 33719ft 477kts
18-Apr-14 18:59 52.419308 -147.705294 290 33720ft 478kts
18-Apr-14 19:00 52.472615 -147.906372 290 33718ft 478kts
18-Apr-14 19:01 52.525476 -148.107569 289 33720ft 478kts
18-Apr-14 19:02 52.577943 -148.309117 289 33719ft 479kts
18-Apr-14 19:03 52.629963 -148.510768 289 33720ft 478kts
18-Apr-14 19:04 52.681656 -148.712839 289 33720ft 478kts
18-Apr-14 19:05 52.733046 -148.915626 288 33717ft 478kts
18-Apr-14 19:06 52.775429 -149.084337 288 33720ft 477kts
18-Apr-14 19:07 52.834328 -149.320894 288 33722ft 476kts
18-Apr-14 19:08 52.876189 -149.490448 288 33719ft 475kts
18-Apr-14 19:09 52.926544 -149.693931 288 33719ft 476kts
18-Apr-14 19:10 52.975563 -149.898080 288 33720ft 476kts
18-Apr-14 19:11 53.025486 -150.102366 289 33713ft 479kts
18-Apr-14 19:12 53.076572 -150.307882 288 33710ft 478kts
18-Apr-14 19:13 53.126632 -150.512430 288 33707ft 477kts
18-Apr-14 19:14 53.178133 -150.717324 288 33709ft 476kts
18-Apr-14 19:15 53.228354 -150.922102 288 33708ft 476kts
18-Apr-14 19:16 53.277999 -151.127521 288 33656ft 476kts
18-Apr-14 19:17 53.327271 -151.333520 287 33648ft 475kts
18-Apr-14 19:18 53.376104 -151.539779 287 33642ft 477kts
18-Apr-14 19:19 53.424719 -151.746950 287 33635ft 477kts
18-Apr-14 19:20 53.473217 -151.955658 286 33639ft 478kts
18-Apr-14 19:21 53.520901 -152.162947 286 33640ft 465kts
18-Apr-14 19:22 53.567432 -152.367162 286 33639ft 467kts
18-Apr-14 19:23 53.613721 -152.572340 286 33614ft 469kts
18-Apr-14 19:24 53.660083 -152.779811 286 33579ft 472kts
18-Apr-14 19:25 53.705902 -152.986920 286 33579ft 472kts
18-Apr-14 19:26 53.751517 -153.195207 286 33577ft 472kts
18-Apr-14 19:27 53.796920 -153.404639 285 33580ft 472kts
18-Apr-14 19:28 53.841885 -153.614139 285 33582ft 471kts
18-Apr-14 19:29 53.886410 -153.823740 285 33584ft 471kts
18-Apr-14 19:30 53.930730 -154.034697 286 33541ft 480kts
18-Apr-14 19:31 53.976061 -154.252641 286 33540ft 493kts
18-Apr-14 19:32 54.021198 -154.472046 286 33541ft 489kts
18-Apr-14 19:33 54.065864 -154.691643 285 33560ft 490kts
18-Apr-14 19:34 54.110151 -154.911669 285 33557ft 490kts
18-Apr-14 19:35 54.153997 -155.132180 285 33558ft 489kts
18-Apr-14 19:36 54.197470 -155.353195 285 33558ft 489kts
18-Apr-14 19:37 54.240454 -155.574184 285 33560ft 489kts
18-Apr-14 19:38 54.283122 -155.796117 285 33560ft 490kts
18-Apr-14 19:39 54.325282 -156.018093 284 33563ft 489kts
18-Apr-14 19:40 54.367070 -156.240553 284 33557ft 488kts
18-Apr-14 19:41 54.408443 -156.463657 284 33560ft 489kts
18-Apr-14 19:42 54.449430 -156.687222 284 33563ft 489kts
18-Apr-14 19:43 54.489878 -156.910568 284 33563ft 489kts
18-Apr-14 19:44 54.530016 -157.134847 284 33561ft 489kts
18-Apr-14 19:45 54.569885 -157.360408 284 34701ft 490kts
18-Apr-14 19:46 54.609606 -157.588015 283 35554ft 498kts
18-Apr-14 19:47 54.648883 -157.816060 283 35549ft 491kts
18-Apr-14 19:48 54.687351 -158.042170 283 35548ft 490kts
18-Apr-14 19:49 54.692223 -158.071027 283 35549ft 491kts
18-Apr-14 19:50 54.763234 -158.497033 283 35488ft 492kts
18-Apr-14 19:51 54.800493 -158.724838 283 35480ft 492kts
18-Apr-14 19:52 54.837462 -158.953935 283 35415ft 491kts
18-Apr-14 19:53 54.873863 -159.182624 283 35379ft 490kts
18-Apr-14 19:54 54.909941 -159.412258 282 35378ft 491kts
18-Apr-14 19:55 54.940221 -159.602870 282 35381ft 491kts
18-Apr-14 19:56 54.974990 -159.833318 282 35381ft 492kts
18-Apr-14 19:57 55.007636 -160.064732 277 35371ft 489kts
18-Apr-14 19:58 55.027456 -160.298540 275 35380ft 489kts
18-Apr-14 19:59 55.047463 -160.533488 275 35380ft 490kts
18-Apr-14 20:00 55.069071 -160.768794 276 35380ft 490kts
18-Apr-14 20:01 55.089851 -161.004089 276 35381ft 490kts
18-Apr-14 20:02 55.109785 -161.239591 275 35379ft 488kts
18-Apr-14 20:03 55.129090 -161.474187 275 35380ft 489kts
18-Apr-14 20:04 55.148031 -161.710066 275 35401ft 489kts
18-Apr-14 20:05 55.166528 -161.946125 276 35399ft 489kts
18-Apr-14 20:06 55.184585 -162.182967 275 35399ft 489kts
18-Apr-14 20:07 55.202093 -162.418596 275 35401ft 489kts
18-Apr-14 20:08 55.219215 -162.655365 275 35396ft 490kts
18-Apr-14 20:09 55.235875 -162.892507 275 35399ft 488kts
18-Apr-14 20:10 55.252049 -163.129516 275 35402ft 489kts
18-Apr-14 20:11 55.267755 -163.366003 274 35399ft 489kts
18-Apr-14 20:12 55.283049 -163.603853 274 35401ft 488kts
18-Apr-14 20:13 55.297859 -163.841509 274 35401ft 490kts
18-Apr-14 20:14 55.312202 -164.079104 274 35399ft 489kts
18-Apr-14 20:15 55.326085 -164.317108 274 35419ft 489kts
18-Apr-14 20:16 55.339554 -164.555521 274 35435ft 490kts
18-Apr-14 20:17 55.352511 -164.793983 274 35437ft 492kts
18-Apr-14 20:18 55.365050 -165.033292 274 35445ft 491kts
18-Apr-14 20:19 55.377189 -165.273511 274 35463ft 491kts
18-Apr-14 20:20 55.388795 -165.513480 274 35468ft 491kts
18-Apr-14 20:21 55.399905 -165.752674 273 35468ft 491kts
18-Apr-14 20:22 55.410583 -165.993030 273 35470ft 492kts
18-Apr-14 20:23 55.420807 -166.233571 273 35468ft 491kts
18-Apr-14 20:24 55.430511 -166.473251 273 35471ft 492kts
18-Apr-14 20:25 55.439781 -166.713422 273 35528ft 489kts
18-Apr-14 20:26 55.448548 -166.953474 273 35532ft 490kts
18-Apr-14 20:27 55.456846 -167.192890 273 35530ft 490kts
18-Apr-14 20:28 55.464672 -167.433184 273 35492ft 492kts
18-Apr-14 20:29 55.472001 -167.672674 273 35531ft 488kts
18-Apr-14 20:30 55.478910 -167.912426 273 35530ft 488kts
18-Apr-14 20:31 55.485306 -168.152139 273 35531ft 489kts
18-Apr-14 20:32 55.491219 -168.390844 272 35527ft 488kts
18-Apr-14 20:33 55.496839 -168.630433 273 35528ft 488kts
18-Apr-14 20:34 55.502243 -168.870283 272 35523ft 489kts
18-Apr-14 20:35 55.506318 -169.110465 272 35519ft 489kts
18-Apr-14 20:36 55.499113 -169.349792 263 35521ft 490kts
18-Apr-14 20:37 55.481832 -169.588249 263 35517ft 490kts
18-Apr-14 20:38 55.465936 -169.826416 265 35529ft 490kts
18-Apr-14 20:39 55.451785 -170.064478 264 35533ft 487kts
18-Apr-14 20:40 55.436084 -170.302398 264 35551ft 488kts
18-Apr-14 20:41 55.419826 -170.539081 263 35568ft 487kts
18-Apr-14 20:42 55.403064 -170.775770 263 35569ft 487kts
18-Apr-14 20:43 55.385863 -171.012174 263 35568ft 486kts
18-Apr-14 20:44 55.368277 -171.247354 263 35574ft 486kts
18-Apr-14 20:45 55.350210 -171.482881 262 35579ft 485kts
18-Apr-14 20:46 55.331662 -171.718357 262 35579ft 485kts
18-Apr-14 20:47 55.312794 -171.952088 262 35633ft 481kts
18-Apr-14 20:48 55.293537 -172.184945 262 35632ft 482kts
18-Apr-14 20:49 55.273781 -172.418080 262 35630ft 481kts
18-Apr-14 20:50 55.253654 -172.650174 261 35629ft 482kts
18-Apr-14 20:51 55.233030 -172.882906 261 35629ft 482kts
18-Apr-14 20:52 55.211952 -173.115295 261 35628ft 482kts
18-Apr-14 20:53 55.190487 -173.346781 261 35628ft 481kts
18-Apr-14 20:54 55.168567 -173.578522 261 35631ft 482kts
18-Apr-14 20:55 55.146163 -173.810299 261 35627ft 482kts
18-Apr-14 20:56 55.123394 -174.040987 260 35629ft 482kts
18-Apr-14 20:57 55.100130 -174.272148 261 35647ft 480kts
18-Apr-14 20:58 55.076516 -174.502160 260 35709ft 481kts
18-Apr-14 20:59 55.052546 -174.730884 260 35711ft 480kts
18-Apr-14 21:00 55.028060 -174.960512 260 35707ft 481kts
18-Apr-14 21:01 55.003128 -175.189822 260 35707ft 480kts
18-Apr-14 21:02 54.977826 -175.418381 260 35710ft 480kts
18-Apr-14 21:03 54.952062 -175.646860 260 35713ft 480kts
18-Apr-14 21:04 54.925861 -175.875198 259 35710ft 480kts
18-Apr-14 21:05 54.899341 -176.102369 259 35712ft 480kts
18-Apr-14 21:06 54.872307 -176.329958 259 35709ft 481kts
18-Apr-14 21:07 54.844773 -176.557725 259 35711ft 482kts
18-Apr-14 21:08 54.821618 -176.746478 259 35759ft 477kts
18-Apr-14 21:09 54.793579 -176.971630 259 35789ft 477kts
18-Apr-14 21:10 54.765116 -177.196522 259 35789ft 477kts
18-Apr-14 21:11 54.736335 -177.420363 258 35789ft 477kts
18-Apr-14 21:12 54.707526 -177.644809 259 35789ft 477kts
18-Apr-14 21:13 54.677727 -177.868808 258 35789ft 477kts
18-Apr-14 21:14 54.647354 -178.091659 258 35789ft 477kts
18-Apr-14 21:15 54.625397 -178.317508 263 35789ft 476kts
18-Apr-14 21:16 54.606211 -178.544028 262 35789ft 476kts
18-Apr-14 21:17 54.586252 -178.769419 263 35789ft 476kts
18-Apr-14 21:18 54.567121 -178.995678 262 35789ft 476kts
18-Apr-14 21:19 54.546587 -179.221606 262 35789ft 476kts
18-Apr-14 21:20 54.525564 -179.446455 262 35789ft 476kts
18-Apr-14 21:21 54.504027 -179.671858 261 35789ft 476kts
18-Apr-14 21:22 54.482065 -179.897052 261 35789ft 476kts
18-Apr-14 21:23 54.459861 179.879786 261 35789ft 471kts
18-Apr-14 21:24 54.437300 179.657333 261 35789ft 471kts
18-Apr-14 21:25 54.414328 179.435123 261 35789ft 471kts
18-Apr-14 21:26 54.391023 179.213864 261 35789ft 472kts
18-Apr-14 21:27 54.367233 178.992126 261 35789ft 472kts
18-Apr-14 21:28 54.343113 178.771322 261 35789ft 472kts
18-Apr-14 21:29 54.318506 178.550029 260 35789ft 472kts
18-Apr-14 21:30 54.293496 178.329021 260 35789ft 472kts
18-Apr-14 21:31 54.268152 178.108877 260 35789ft 472kts
18-Apr-14 21:32 54.242451 177.889364 260 35789ft 469kts
18-Apr-14 21:33 54.216373 177.670314 260 35789ft 469kts
18-Apr-14 21:34 54.189995 177.452337 260 35808ft 469kts
18-Apr-14 21:35 54.163118 177.233783 259 35809ft 469kts
18-Apr-14 21:36 54.135844 177.015503 259 35809ft 469kts
18-Apr-14 21:37 54.108268 176.798229 259 35809ft 469kts
18-Apr-14 21:38 54.080215 176.580591 259 35809ft 469kts
18-Apr-14 21:39 54.051758 176.363148 259 35809ft 469kts
18-Apr-14 21:40 54.023001 176.146696 259 35809ft 469kts
18-Apr-14 21:41 53.993751 175.929772 258 35809ft 470kts
18-Apr-14 21:42 53.964210 175.713876 258 35809ft 470kts
18-Apr-14 21:43 53.934184 175.497580 258 35809ft 470kts
18-Apr-14 21:44 53.903788 175.281721 258 35836ft 468kts
18-Apr-14 21:45 53.873158 175.067238 258 35839ft 468kts
18-Apr-14 21:46 53.842056 174.852460 258 35864ft 468kts
18-Apr-14 21:47 53.810560 174.637920 258 35870ft 470kts
18-Apr-14 21:48 53.778560 174.422903 258 35885ft 470kts
18-Apr-14 21:49 53.746338 174.209264 257 35889ft 470kts
18-Apr-14 21:50 53.713632 173.995269 257 35889ft 469kts
18-Apr-14 21:51 53.680554 173.781692 257 35889ft 469kts
18-Apr-14 21:52 53.647202 173.569104 256 35889ft 469kts
18-Apr-14 21:53 53.613422 173.356522 256 35889ft 466kts
18-Apr-14 21:54 53.579408 173.145165 256 35889ft 467kts
18-Apr-14 21:55 53.545137 172.934854 256 35889ft 467kts
18-Apr-14 21:56 53.510362 172.724058 255 35879ft 467kts
18-Apr-14 21:57 53.475311 172.514178 255 35879ft 467kts
18-Apr-14 21:58 53.439763 172.303876 255 35850ft 467kts
18-Apr-14 21:59 53.403834 172.093856 255 35849ft 467kts
18-Apr-14 22:00 53.367528 171.884124 254 35820ft 468kts
18-Apr-14 22:01 53.330969 171.675422 254 35819ft 468kts
18-Apr-14 22:02 53.293911 171.466302 254 35819ft 468kts
18-Apr-14 22:03 53.256718 171.258819 254 35829ft 466kts
18-Apr-14 22:04 53.219068 171.051166 254 35829ft 466kts
18-Apr-14 22:05 53.181079 170.843983 254 35829ft 466kts
18-Apr-14 22:06 53.142840 170.637742 253 35829ft 466kts
18-Apr-14 22:07 53.104113 170.431153 253 35829ft 466kts
18-Apr-14 22:08 53.065595 170.224670 253 35829ft 466kts
18-Apr-14 22:09 53.025882 170.019754 253 35829ft 466kts
18-Apr-14 22:10 52.978902 169.818717 242 35828ft 468kts
18-Apr-14 22:11 52.913768 169.630898 241 35897ft 469kts
18-Apr-14 22:12 52.849462 169.443383 241 35899ft 469kts
18-Apr-14 22:13 52.786131 169.254494 242 35899ft 468kts
18-Apr-14 22:14 52.722467 169.067052 241 35899ft 469kts
18-Apr-14 22:15 52.658030 168.879774 242 35968ft 468kts
18-Apr-14 22:16 52.593307 168.693157 242 35969ft 468kts
18-Apr-14 22:17 52.528501 168.507722 242 35969ft 468kts
18-Apr-14 22:18 52.463154 168.322123 241 35969ft 468kts
18-Apr-14 22:19 52.397530 168.137107 241 35969ft 468kts
18-Apr-14 22:20 52.332262 167.954444 241 35969ft 465kts
18-Apr-14 22:21 52.277503 167.802211 241 35969ft 465kts
18-Apr-14 22:22 52.200839 167.590609 240 35969ft 465kts
18-Apr-14 22:23 52.146648 167.442124 241 35969ft 443kts
18-Apr-14 22:24 52.083662 167.270567 241 35969ft 441kts
18-Apr-14 22:25 52.009992 167.071402 241 35969ft 441kts
18-Apr-14 22:26 51.956965 166.929010 241 35969ft 441kts
18-Apr-14 22:27 51.893341 166.759204 241 35969ft 441kts
18-Apr-14 22:28 51.829203 166.589141 240 36071ft 444kts
18-Apr-14 22:29 51.764329 166.418314 240 36082ft 444kts
18-Apr-14 22:30 51.699498 166.248709 240 36082ft 444kts
18-Apr-14 22:31 51.634214 166.079039 240 36082ft 444kts
18-Apr-14 22:32 51.569023 165.909155 239 36082ft 449kts
18-Apr-14 22:33 51.502354 165.738896 239 36082ft 450kts
18-Apr-14 22:34 51.435292 165.568750 239 36082ft 450kts
18-Apr-14 22:35 51.368217 165.399604 239 36082ft 450kts
18-Apr-14 22:36 51.300563 165.230433 239 36082ft 450kts
18-Apr-14 22:37 51.232933 165.061619 239 36082ft 450kts
18-Apr-14 22:38 51.165898 164.893127 239 36082ft 450kts
18-Apr-14 22:39 51.098348 164.724762 239 36082ft 450kts
18-Apr-14 22:40 51.029834 164.557385 238 36082ft 450kts
18-Apr-14 22:41 50.961354 164.391130 238 36082ft 450kts
18-Apr-14 22:42 50.892248 164.224871 238 36082ft 450kts
18-Apr-14 22:43 50.822992 164.059842 238 36082ft 451kts
18-Apr-14 22:44 50.753449 163.894491 238 36082ft 450kts
18-Apr-14 22:45 50.684554 163.728744 238 36082ft 450kts
18-Apr-14 22:46 50.615104 163.564649 238 36082ft 451kts
18-Apr-14 22:47 50.545080 163.400522 237 36082ft 451kts
18-Apr-14 22:48 50.474808 163.236878 237 36082ft 451kts
18-Apr-14 22:49 50.404533 163.074246 237 36082ft 451kts
18-Apr-14 22:50 50.333672 162.911272 237 36082ft 455kts
18-Apr-14 22:51 50.261916 162.747264 237 36082ft 456kts
18-Apr-14 22:52 50.189825 162.583511 237 36082ft 457kts
18-Apr-14 22:53 50.117473 162.420178 236 36082ft 457kts
18-Apr-14 22:54 50.045131 162.257873 236 36082ft 457kts
18-Apr-14 22:55 49.972311 162.095495 236 36082ft 457kts
18-Apr-14 22:56 49.899253 161.933577 236 36082ft 457kts
18-Apr-14 22:57 49.826231 161.772721 236 36082ft 457kts
18-Apr-14 22:58 49.752723 161.611769 236 36082ft 457kts
18-Apr-14 22:59 49.679250 161.451855 236 36082ft 457kts
18-Apr-14 23:00 49.605652 161.291515 236 36082ft 457kts
18-Apr-14 23:01 49.531244 161.132309 235 36082ft 457kts
18-Apr-14 23:02 49.456905 160.974042 235 36082ft 457kts
18-Apr-14 23:03 49.381811 160.815924 235 36082ft 457kts
18-Apr-14 23:04 49.306522 160.658281 235 36082ft 457kts
18-Apr-14 23:05 49.232023 160.500965 235 36081ft 456kts
18-Apr-14 23:06 49.157005 160.343572 235 36083ft 457kts
18-Apr-14 23:07 49.081225 160.187174 235 36083ft 457kts
18-Apr-14 23:08 49.005215 160.031396 235 36080ft 456kts
18-Apr-14 23:09 48.930126 159.878888 235 36081ft 445kts
18-Apr-14 23:10 48.855394 159.728456 234 36080ft 446kts
18-Apr-14 23:11 48.780333 159.578099 235 36082ft 445kts
18-Apr-14 23:12 48.706212 159.427474 235 36084ft 445kts
18-Apr-14 23:13 48.631545 159.278130 234 36082ft 447kts
18-Apr-14 23:14 48.556256 159.128783 234 36082ft 447kts
18-Apr-14 23:15 48.480834 158.979992 234 36082ft 445kts
18-Apr-14 23:16 48.405504 158.832231 234 36082ft 444kts
18-Apr-14 23:17 48.329605 158.684186 234 36079ft 446kts
18-Apr-14 23:18 48.253280 158.536097 234 36081ft 446kts
18-Apr-14 23:19 48.177160 158.389227 234 36084ft 446kts
18-Apr-14 23:20 48.100621 158.242285 234 36082ft 446kts
18-Apr-14 23:21 48.024100 158.096274 234 36080ft 446kts
18-Apr-14 23:22 47.947099 157.950078 234 36084ft 446kts
18-Apr-14 23:23 47.869965 157.804423 234 36081ft 447kts
18-Apr-14 23:24 47.792899 157.659669 234 36080ft 447kts
18-Apr-14 23:25 47.715291 157.514716 234 36080ft 447kts
18-Apr-14 23:26 47.637759 157.370607 234 36082ft 447kts
18-Apr-14 23:27 47.559671 157.226257 233 36084ft 449kts
18-Apr-14 23:28 47.481477 157.082479 233 36082ft 447kts
18-Apr-14 23:29 47.403406 156.939683 233 36081ft 448kts
18-Apr-14 23:30 47.324961 156.796934 233 36083ft 448kts
18-Apr-14 23:31 47.246378 156.654690 233 36081ft 448kts
18-Apr-14 23:32 47.167510 156.512683 233 36083ft 448kts
18-Apr-14 23:33 47.088429 156.371023 233 36080ft 446kts
18-Apr-14 23:34 47.009469 156.230305 233 36082ft 448kts
18-Apr-14 23:35 46.929992 156.089374 233 36081ft 447kts
18-Apr-14 23:36 46.850361 155.948904 233 36140ft 448kts
18-Apr-14 23:37 46.770882 155.809442 232 36140ft 447kts
18-Apr-14 23:38 46.690943 155.669883 232 36138ft 449kts
18-Apr-14 23:39 46.624177 155.553847 232 36139ft 448kts
18-Apr-14 23:40 46.530653 155.392101 232 36140ft 447kts
18-Apr-14 23:41 46.450119 155.253593 232 36140ft 448kts
18-Apr-14 23:42 46.383081 155.138839 232 36143ft 449kts
18-Apr-14 23:43 46.302272 155.001113 232 36142ft 447kts
18-Apr-14 23:44 46.221329 154.863924 232 36142ft 448kts
18-Apr-14 23:45 46.140535 154.727571 232 36141ft 447kts
18-Apr-14 23:46 46.059392 154.591353 232 36143ft 447kts
18-Apr-14 23:47 45.978328 154.455919 232 36142ft 447kts
18-Apr-14 23:48 45.896807 154.320407 232 36138ft 448kts
18-Apr-14 23:49 45.814968 154.184993 231 36141ft 449kts
18-Apr-14 23:50 45.733244 154.050161 232 36078ft 447kts
18-Apr-14 23:51 45.650830 153.914776 231 36081ft 459kts
18-Apr-14 23:52 45.565501 153.776156 231 36082ft 462kts
18-Apr-14 23:53 45.480405 153.639387 231 36084ft 462kts
18-Apr-14 23:54 45.394421 153.503010 231 36082ft 462kts
18-Apr-14 23:55 45.308217 153.367061 231 36085ft 463kts
18-Apr-14 23:56 45.222770 153.230709 231 36080ft 462kts
18-Apr-14 23:57 45.136527 153.094753 231 36081ft 463kts
18-Apr-14 23:58 45.050014 152.959412 230 36085ft 463kts
18-Apr-14 23:59 44.963371 152.824451 230 36080ft 462kts
19-Apr-14 00:00 44.876428 152.689729 230 36081ft 461kts
19-Apr-14 00:01 44.789788 152.556155 230 36083ft 465kts
19-Apr-14 00:02 44.702389 152.422025 230 36081ft 462kts
19-Apr-14 00:03 44.614959 152.288480 230 36082ft 464kts
19-Apr-14 00:04 44.527690 152.155851 230 36082ft 463kts
19-Apr-14 00:05 44.440029 152.023253 230 36083ft 462kts
19-Apr-14 00:06 44.352355 151.891252 230 36084ft 462kts
19-Apr-14 00:07 44.264528 151.759643 230 36082ft 463kts
19-Apr-14 00:08 44.176624 151.628502 230 36084ft 461kts
19-Apr-14 00:09 44.088809 151.498156 230 36079ft 462kts
19-Apr-14 00:10 44.000487 151.367671 230 36082ft 462kts
19-Apr-14 00:11 43.912375 151.238075 230 36083ft 460kts
19-Apr-14 00:12 43.824488 151.109404 230 36084ft 461kts
19-Apr-14 00:13 43.735954 150.980383 230 36084ft 461kts
19-Apr-14 00:14 43.647404 150.851937 230 36082ft 463kts
19-Apr-14 00:15 43.558586 150.723662 229 36080ft 460kts
19-Apr-14 00:16 43.469334 150.595369 229 36052ft 462kts
19-Apr-14 00:17 43.380402 150.468133 229 36052ft 463kts
19-Apr-14 00:18 43.290754 150.340480 229 36053ft 464kts
19-Apr-14 00:19 43.201106 150.213355 229 36052ft 463kts
19-Apr-14 00:20 43.111553 150.086909 229 36052ft 463kts
19-Apr-14 00:21 43.021675 149.960561 229 36052ft 461kts
19-Apr-14 00:22 42.932453 149.835811 230 36053ft 451kts
19-Apr-14 00:23 42.844672 149.713518 230 36052ft 452kts
19-Apr-14 00:24 42.756491 149.591209 230 36052ft 451kts
19-Apr-14 00:25 42.668424 149.469588 230 36053ft 453kts
19-Apr-14 00:26 42.579763 149.347673 230 36052ft 452kts
19-Apr-14 00:27 42.491002 149.226144 230 36052ft 452kts
19-Apr-14 00:28 42.402372 149.105310 230 36053ft 453kts
19-Apr-14 00:29 42.313317 148.984413 230 36052ft 453kts
19-Apr-14 00:30 42.224271 148.864041 230 36052ft 452kts
19-Apr-14 00:31 42.135431 148.744447 230 36053ft 452kts
19-Apr-14 00:32 42.046159 148.624775 230 36052ft 452kts
19-Apr-14 00:33 41.957135 148.505730 230 36052ft 451kts
19-Apr-14 00:34 41.867748 148.386649 230 36053ft 452kts
19-Apr-14 00:35 41.777934 148.268092 230 36053ft 452kts
19-Apr-14 00:36 41.687902 148.150695 229 36052ft 453kts
19-Apr-14 00:37 41.596787 148.033918 229 36052ft 453kts
19-Apr-14 00:38 41.505592 147.917451 229 36052ft 452kts
19-Apr-14 00:39 41.415249 147.801088 229 36053ft 452kts
19-Apr-14 00:40 41.324225 147.684869 229 36052ft 452kts
19-Apr-14 00:41 41.233297 147.569482 229 36052ft 452kts
19-Apr-14 00:42 41.141922 147.454039 229 36053ft 452kts
19-Apr-14 00:43 41.050404 147.338888 229 36052ft 452kts
19-Apr-14 00:44 40.959105 147.224475 229 36052ft 452kts
19-Apr-14 00:45 40.867308 147.109898 229 36053ft 453kts
19-Apr-14 00:46 40.775458 146.995713 229 36053ft 453kts
19-Apr-14 00:47 40.683770 146.882186 229 36053ft 452kts
19-Apr-14 00:48 40.593160 146.770439 229 36052ft 443kts
19-Apr-14 00:49 40.502894 146.659531 229 36052ft 443kts
19-Apr-14 00:50 40.412783 146.549248 229 36053ft 443kts
19-Apr-14 00:51 40.322236 146.438857 229 36052ft 443kts
19-Apr-14 00:52 40.231936 146.329189 229 36052ft 443kts
19-Apr-14 00:53 40.141158 146.219361 229 36053ft 443kts
19-Apr-14 00:54 40.050283 146.109834 229 36052ft 443kts
19-Apr-14 00:55 39.959626 146.000983 229 36052ft 443kts
19-Apr-14 00:56 39.868518 145.892003 229 36052ft 444kts
19-Apr-14 00:57 39.777589 145.783647 229 36053ft 444kts
19-Apr-14 00:58 39.701475 145.693255 229 36049ft 444kts
19-Apr-14 00:59 39.610231 145.585281 229 36023ft 440kts
19-Apr-14 01:00 39.519786 145.478624 229 36023ft 440kts
19-Apr-14 01:01 39.428901 145.371853 229 36023ft 440kts
19-Apr-14 01:02 39.338714 145.266318 231 36023ft 433kts
19-Apr-14 01:03 39.249165 145.161857 231 36023ft 433kts
19-Apr-14 01:04 39.159387 145.057525 230 36023ft 433kts
19-Apr-14 01:05 39.069847 144.953845 230 36023ft 433kts
19-Apr-14 01:06 38.978923 144.848942 231 36111ft 441kts
19-Apr-14 01:07 38.887931 144.744331 231 36112ft 439kts
19-Apr-14 01:08 38.796541 144.639643 231 36112ft 439kts
19-Apr-14 01:09 38.705095 144.535265 230 36111ft 439kts
19-Apr-14 01:10 38.613745 144.431364 230 36139ft 441kts
19-Apr-14 01:11 38.521837 144.327204 230 36141ft 440kts
19-Apr-14 01:12 38.429858 144.223331 230 36141ft 440kts
19-Apr-14 01:13 38.338072 144.120040 230 36141ft 441kts
19-Apr-14 01:14 38.245875 144.016652 230 36141ft 441kts
19-Apr-14 01:15 38.153857 143.913823 230 36141ft 441kts
19-Apr-14 01:16 38.061646 143.811137 231 36141ft 437kts
19-Apr-14 01:17 37.969926 143.708969 230 36141ft 438kts
19-Apr-14 01:18 37.878160 143.607738 230 36141ft 438kts
19-Apr-14 01:19 37.800190 143.495253 252 36142ft 411kts
19-Apr-14 01:20 37.759396 143.361655 256 36141ft 406kts
19-Apr-14 01:21 37.718101 143.228993 255 36137ft 407kts
19-Apr-14 01:22 37.676220 143.096358 255 36140ft 406kts
19-Apr-14 01:23 37.634426 142.963958 255 36142ft 407kts
19-Apr-14 01:24 37.592317 142.831303 255 36139ft 405kts
19-Apr-14 01:25 37.549770 142.698890 254 36141ft 406kts
19-Apr-14 01:26 37.507273 142.567837 255 36142ft 402kts
19-Apr-14 01:27 37.464962 142.437070 255 36172ft 402kts
19-Apr-14 01:28 37.422470 142.306910 255 36170ft 401kts
19-Apr-14 01:29 37.378909 142.176454 253 36168ft 405kts
19-Apr-14 01:30 37.335151 142.047784 254 36169ft 398kts
19-Apr-14 01:31 37.291590 141.920167 254 36172ft 396kts
19-Apr-14 01:32 37.248740 141.793384 255 36134ft 394kts
19-Apr-14 01:33 37.206681 141.669737 257 36173ft 375kts
19-Apr-14 01:34 37.165466 141.549565 257 36171ft 376kts
19-Apr-14 01:35 37.123940 141.429088 257 36171ft 376kts
19-Apr-14 01:36 37.082396 141.309053 256 36170ft 376kts
19-Apr-14 01:37 37.040584 141.188727 256 36171ft 376kts
19-Apr-14 01:38 36.998957 141.068450 257 36171ft 376kts
19-Apr-14 01:39 36.956985 140.948813 256 36170ft 376kts
19-Apr-14 01:40 36.914605 140.828837 256 36170ft 376kts
19-Apr-14 01:41 36.872267 140.708994 257 36171ft 376kts
19-Apr-14 01:42 36.830188 140.589578 256 36171ft 376kts
19-Apr-14 01:43 36.787408 140.469955 256 36171ft 376kts
19-Apr-14 01:44 36.744163 140.350985 253 36171ft 382kts
19-Apr-14 01:45 36.684712 140.235871 247 36109ft 399kts
19-Apr-14 01:46 36.623946 140.120414 248 36113ft 397kts
19-Apr-14 01:47 36.563332 140.006066 248 36114ft 396kts
19-Apr-14 01:48 36.502211 139.891164 248 36112ft 397kts
19-Apr-14 01:49 36.437742 139.778161 245 36109ft 401kts
19-Apr-14 01:50 36.372299 139.666674 246 36112ft 399kts
19-Apr-14 01:51 36.307283 139.554695 246 36109ft 399kts
19-Apr-14 01:52 36.241742 139.443147 246 36114ft 400kts
19-Apr-14 01:53 36.174921 139.329612 247 36149ft 411kts
19-Apr-14 01:54 36.124525 139.207318 256 36143ft 395kts
19-Apr-14 01:55 36.079412 139.083867 255 36138ft 394kts
19-Apr-14 01:56 36.033579 138.960712 255 36176ft 390kts
19-Apr-14 01:57 35.987588 138.838721 255 36219ft 391kts
19-Apr-14 01:58 35.941831 138.717271 255 36219ft 391kts
19-Apr-14 01:59 35.895682 138.595511 255 36219ft 391kts
19-Apr-14 02:00 35.849455 138.474499 254 36090ft 390kts
19-Apr-14 02:01 35.803176 138.353753 255 36081ft 389kts
19-Apr-14 02:02 35.757059 138.232562 254 36079ft 388kts
19-Apr-14 02:03 35.710525 138.112426 254 36083ft 390kts
19-Apr-14 02:04 35.663953 137.991802 255 36083ft 388kts
19-Apr-14 02:05 35.620652 137.870312 256 36084ft 387kts
19-Apr-14 02:06 35.576516 137.749793 255 36078ft 389kts
19-Apr-14 02:07 35.530553 137.629179 255 36083ft 390kts
19-Apr-14 02:08 35.484238 137.507959 254 36023ft 394kts
19-Apr-14 02:09 35.437872 137.385642 255 36074ft 397kts
19-Apr-14 02:10 35.390946 137.262295 255 36084ft 400kts
19-Apr-14 02:11 35.346391 137.138201 255 36084ft 398kts
19-Apr-14 02:12 35.301471 137.014402 255 36084ft 396kts
19-Apr-14 02:13 35.259080 136.890490 261 36084ft 389kts
19-Apr-14 02:14 35.230898 136.763405 261 36087ft 385kts
19-Apr-14 02:15 35.202447 136.636615 261 36089ft 385kts
19-Apr-14 02:16 35.178663 136.532026 261 36111ft 382kts
19-Apr-14 02:17 35.150507 136.405954 260 36110ft 381kts
19-Apr-14 02:18 35.122333 136.282127 259 36112ft 379kts
19-Apr-14 02:19 35.094112 136.157920 259 36113ft 379kts
19-Apr-14 02:20 35.065549 136.034007 258 36134ft 379kts
19-Apr-14 02:21 35.036467 135.909410 257 36200ft 382kts
19-Apr-14 02:22 35.008373 135.784177 259 36200ft 381kts
19-Apr-14 02:23 34.985595 135.657698 259 36200ft 381kts
19-Apr-14 02:24 34.961647 135.531993 259 36200ft 381kts
19-Apr-14 02:25 34.937480 135.405900 259 36200ft 381kts
19-Apr-14 02:26 34.913748 135.280206 259 36200ft 381kts
19-Apr-14 02:27 34.889370 135.154299 259 36200ft 381kts
19-Apr-14 02:28 34.864880 135.028419 259 36171ft 381kts
19-Apr-14 02:29 34.841406 134.902821 259 36170ft 381kts
19-Apr-14 02:30 34.817625 134.776895 259 36171ft 381kts
19-Apr-14 02:31 34.793733 134.651009 259 36171ft 381kts
19-Apr-14 02:32 34.769615 134.525782 259 36193ft 379kts
19-Apr-14 02:33 34.745429 134.399948 260 36171ft 385kts
19-Apr-14 02:34 34.720922 134.272296 260 36170ft 387kts
19-Apr-14 02:35 34.696566 134.145038 260 36170ft 387kts
19-Apr-14 02:36 34.671565 134.016891 258 36170ft 389kts
19-Apr-14 02:37 34.634820 133.893510 252 36171ft 388kts
19-Apr-14 02:38 34.596207 133.770816 252 36171ft 389kts
19-Apr-14 02:39 34.557868 133.647767 252 36171ft 389kts
19-Apr-14 02:40 34.518417 133.525557 252 36171ft 390kts
19-Apr-14 02:41 34.478175 133.403915 251 36171ft 387kts
19-Apr-14 02:42 34.439408 133.280848 252 36141ft 391kts
19-Apr-14 02:43 34.400828 133.157907 252 36141ft 391kts
19-Apr-14 02:44 34.361680 133.034762 252 36141ft 391kts
19-Apr-14 02:45 34.322263 132.911791 252 36141ft 391kts
19-Apr-14 02:46 34.283660 132.789054 252 36141ft 391kts
19-Apr-14 02:47 34.244617 132.666126 252 36141ft 391kts
19-Apr-14 02:48 34.205140 132.542506 252 36119ft 396kts
19-Apr-14 02:49 34.166112 132.417975 253 36119ft 395kts
19-Apr-14 02:50 34.126540 132.294074 252 36109ft 394kts
19-Apr-14 02:51 34.087006 132.170748 252 36109ft 394kts
19-Apr-14 02:52 34.056195 132.044235 258 36110ft 392kts
19-Apr-14 02:53 34.028345 131.916806 256 36109ft 392kts
19-Apr-14 02:54 33.999755 131.789940 257 36112ft 392kts
19-Apr-14 02:55 33.970635 131.662904 257 36084ft 393kts
19-Apr-14 02:56 33.941763 131.536156 257 36082ft 393kts
19-Apr-14 02:57 33.912164 131.409259 257 36082ft 393kts
19-Apr-14 02:58 33.882174 131.281044 256 36082ft 398kts
19-Apr-14 02:59 33.854437 131.152423 255 36082ft 398kts
19-Apr-14 03:00 33.822599 131.024569 256 36082ft 398kts
19-Apr-14 03:01 33.792992 130.896067 257 36082ft 398kts
19-Apr-14 03:02 33.759200 130.746581 257 36082ft 398kts
19-Apr-14 03:03 33.729562 130.617925 258 36066ft 399kts
19-Apr-14 03:04 33.699741 130.488795 257 36053ft 402kts
19-Apr-14 03:05 33.659776 130.363067 241 36056ft 413kts
19-Apr-14 03:06 33.601714 130.270344 238 36052ft 417kts
19-Apr-14 03:07 33.518912 130.141899 238 36052ft 416kts
19-Apr-14 03:08 33.460342 130.050206 239 36053ft 416kts
19-Apr-14 03:09 33.390587 129.940140 239 36053ft 412kts
19-Apr-14 03:10 33.321081 129.831379 239 36052ft 412kts
19-Apr-14 03:11 33.251138 129.722371 239 36052ft 412kts
19-Apr-14 03:12 33.180554 129.612695 239 36052ft 417kts
19-Apr-14 03:13 33.110153 129.503637 239 36024ft 413kts
19-Apr-14 03:14 33.039880 129.395087 239 36023ft 413kts
19-Apr-14 03:15 32.969490 129.286693 239 36053ft 410kts
19-Apr-14 03:16 32.899907 129.179817 239 36052ft 411kts
19-Apr-14 03:17 32.829828 129.072016 239 36049ft 409kts
19-Apr-14 03:18 32.760261 128.965965 239 36025ft 400kts
19-Apr-14 03:19 32.691556 128.861580 239 36023ft 400kts
19-Apr-14 03:20 32.649345 128.743961 259 36022ft 385kts
19-Apr-14 03:21 32.624872 128.620562 259 36023ft 385kts
19-Apr-14 03:22 32.598880 128.497065 259 36023ft 385kts
19-Apr-14 03:23 32.572956 128.373629 259 36023ft 385kts
19-Apr-14 03:24 32.546956 128.250735 259 36023ft 385kts
19-Apr-14 03:25 32.520875 128.127445 258 36023ft 385kts
19-Apr-14 03:26 32.494285 128.004684 258 36023ft 385kts
19-Apr-14 03:27 32.467526 127.881606 258 36023ft 385kts
19-Apr-14 03:28 32.440915 127.758576 258 36023ft 385kts
19-Apr-14 03:29 32.414000 127.636058 258 36023ft 385kts
19-Apr-14 03:30 32.386744 127.513297 258 36023ft 385kts
19-Apr-14 03:31 32.359256 127.390530 258 36023ft 385kts
19-Apr-14 03:32 32.331933 127.267821 258 36051ft 389kts
19-Apr-14 03:33 32.303735 127.143860 258 36068ft 389kts
19-Apr-14 03:34 32.275843 127.020884 258 36085ft 388kts
19-Apr-14 03:35 32.248912 126.897047 258 36083ft 387kts
19-Apr-14 03:36 32.221401 126.773311 258 36083ft 391kts
19-Apr-14 03:37 32.193958 126.650036 258 36077ft 386kts
19-Apr-14 03:38 32.167158 126.526351 259 36087ft 385kts
19-Apr-14 03:39 32.140416 126.402699 259 36083ft 388kts
19-Apr-14 03:40 32.113771 126.279202 259 36082ft 389kts
19-Apr-14 03:41 32.086537 126.155661 258 36082ft 387kts
19-Apr-14 03:42 32.059565 126.032594 259 36087ft 389kts
19-Apr-14 03:43 32.033146 125.909351 258 36081ft 386kts
19-Apr-14 03:44 32.006484 125.786277 258 36080ft 385kts
19-Apr-14 03:45 31.979844 125.663951 258 36080ft 385kts
19-Apr-14 03:46 31.952919 125.541239 258 36081ft 387kts
19-Apr-14 03:47 31.925954 125.418741 258 36081ft 385kts
19-Apr-14 03:48 31.899773 125.296742 258 36082ft 386kts
19-Apr-14 03:49 31.872628 125.174292 258 36082ft 386kts
19-Apr-14 03:50 31.845402 125.052453 258 36082ft 385kts
19-Apr-14 03:51 31.818209 124.930030 258 36083ft 386kts
19-Apr-14 03:52 31.791044 124.807454 258 36083ft 386kts
19-Apr-14 03:53 31.763748 124.685051 258 36082ft 387kts
19-Apr-14 03:54 31.736559 124.562229 258 36081ft 388kts
19-Apr-14 03:55 31.709424 124.439852 258 36082ft 388kts
19-Apr-14 03:56 31.682077 124.316927 257 36081ft 391kts
19-Apr-14 03:57 31.654100 124.193214 256 35876ft 395kts
19-Apr-14 03:58 31.624838 124.064965 256 35866ft 414kts
19-Apr-14 03:59 31.595758 123.935148 256 34570ft 407kts
19-Apr-14 04:00 31.568299 123.808382 256 32730ft 405kts
19-Apr-14 04:01 31.540360 123.681504 256 30719ft 403kts
19-Apr-14 04:02 31.512096 123.554410 256 28711ft 394kts
19-Apr-14 04:03 31.486707 123.432174 258 26691ft 378kts
19-Apr-14 04:04 31.464608 123.313671 258 24690ft 369kts
19-Apr-14 04:05 31.442126 123.195598 258 22750ft 370kts
19-Apr-14 04:06 31.420763 123.080952 258 21018ft 353kts
19-Apr-14 04:07 31.399098 122.967798 256 18753ft 351kts
19-Apr-14 04:08 31.377882 122.858421 256 16877ft 339kts
19-Apr-14 04:09 31.356712 122.752596 254 15066ft 327kts
19-Apr-14 04:10 31.329034 122.650241 253 12940ft 327kts
19-Apr-14 04:11 31.303115 122.554231 253 12254ft 286kts
19-Apr-14 04:12 31.280239 122.469021 253 11269ft 268kts
19-Apr-14 04:13 31.271308 122.384031 276 9754ft 271kts
19-Apr-14 04:14 31.286182 122.296200 281 8373ft 272kts
19-Apr-14 04:15 31.301748 122.212109 281 7590ft 243kts
19-Apr-14 04:16 31.315232 122.140567 282 6321ft 217kts
19-Apr-14 04:17 31.327725 122.072029 282 4964ft 212kts
19-Apr-14 04:18 31.339852 122.004930 283 3655ft 207kts
19-Apr-14 04:19 31.351653 121.939360 284 2324ft 206kts
19-Apr-14 04:20 31.363294 121.874724 285 1997ft 200kts
19-Apr-14 04:21 31.393691 121.835094 343 2008ft 157kts
19-Apr-14 04:22 31.432289 121.821474 341 2021ft 146kts
19-Apr-14 04:23 31.437412 121.773796 252 2008ft 172kts
19-Apr-14 04:24 31.423882 121.730615 243 1990ft 170kts
19-Apr-14 04:25 31.374372 121.727301 163 1998ft 157kts
19-Apr-14 04:26 31.333469 121.740832 158 1992ft 147kts
19-Apr-14 04:27 31.300393 121.753252 157 2000ft 150kts
19-Apr-14 04:28 31.260173 121.768529 157 2000ft 152kts
19-Apr-14 04:29 31.220256 121.783693 157 1376ft 149kts
19-Apr-14 04:30 31.181562 121.798381 157 595ft 142kts
19-Apr-14 04:31 31.144173 121.812555 160 24ft 92kts
19-Apr-14 04:32 31.136913 121.813407 288 23ft 5kts
19-Apr-14 04:33 31.140896 121.811714 340 23ft 18kts
19-Apr-14 04:34 31.145848 121.809868 338 23ft 17kts
19-Apr-14 04:35 31.150545 121.808103 342 23ft 16kts
19-Apr-14 04:36 31.152598 121.805810 254 23ft 13kts
19-Apr-14 04:37 31.154363 121.803800 247 23ft 6kts
19-Apr-14 04:38 31.154193 121.803206 253 23ft 0kts
19-Apr-14 04:39 31.154193 121.803206 253 23ft 0kts
19-Apr-14 04:40 31.154193 121.803206 253 23ft 0kts
19-Apr-14 04:41 31.154193 121.803206 253 23ft 0kts
19-Apr-14 04:42 31.154193 121.803206 253 23ft 0kts
19-Apr-14 04:43 31.154193 121.803206 253 23ft 0kts
19-Apr-14 04:44 31.154193 121.803206 253 23ft 0kts
19-Apr-14 04:45 31.154193 121.803206 253 23ft 0kts
19-Apr-14 04:46 31.154193 121.803206 253 23ft 0kts
19-Apr-14 04:47 31.154193 121.803206 253 23ft 0kts

Navigation Log

Ident Type
Flight plan parsing failed, navigation log unavailable